createdAt,value
2023-02-26T00:01:40.262Z,98.91
2023-02-26T00:04:09.182Z,99.63
2023-02-26T00:06:39.183Z,99.98
2023-02-26T00:09:06.822Z,99.92
2023-02-26T00:11:35.241Z,100.00
2023-02-26T00:14:02.863Z,100.00
2023-02-26T00:16:33.508Z,100.00
2023-02-26T00:19:04.433Z,100.00
2023-02-26T00:21:33.390Z,100.00
2023-02-26T00:24:02.258Z,100.00
2023-02-26T00:26:32.071Z,100.00
2023-02-26T00:29:00.481Z,100.00
2023-02-26T00:31:28.633Z,100.00
2023-02-26T00:33:57.679Z,100.00
2023-02-26T00:36:25.956Z,100.00
2023-02-26T00:39:15.806Z,100.00
2023-02-26T00:41:43.556Z,100.00
2023-02-26T00:44:11.694Z,100.00
2023-02-26T00:46:49.767Z,100.00
2023-02-26T00:49:45.676Z,100.00
2023-02-26T00:52:19.863Z,100.00
2023-02-26T00:54:47.588Z,100.00
2023-02-26T00:57:15.523Z,100.00
2023-02-26T00:59:44.049Z,100.00
2023-02-26T01:02:11.818Z,98.62
2023-02-26T01:04:40.694Z,99.92
2023-02-26T01:07:10.317Z,97.70
2023-02-26T01:09:38.407Z,99.18
2023-02-26T01:12:13.305Z,100.00
2023-02-26T01:14:42.110Z,100.00
2023-02-26T01:17:24.913Z,100.00
2023-02-26T01:19:56.990Z,99.52
2023-02-26T01:22:40.130Z,98.64
2023-02-26T01:25:12.078Z,99.22
2023-02-26T01:27:40.066Z,99.65
2023-02-26T01:30:09.548Z,99.83
2023-02-26T01:32:53.523Z,100.00
2023-02-26T01:35:32.406Z,99.31
2023-02-26T01:38:29.130Z,99.02
2023-02-26T01:41:21.443Z,99.59
2023-02-26T01:44:34.178Z,99.83
2023-02-26T01:47:10.345Z,99.70
2023-02-26T01:49:38.650Z,100.00
2023-02-26T01:52:27.967Z,99.51
2023-02-26T01:54:55.494Z,100.00
2023-02-26T01:57:23.684Z,100.00
2023-02-26T01:59:52.884Z,100.00
2023-02-26T02:02:25.541Z,100.00
2023-02-26T02:04:53.737Z,100.00
2023-02-26T02:07:21.469Z,100.00
2023-02-26T02:09:48.959Z,100.00
2023-02-26T02:12:32.197Z,100.00
2023-02-26T02:15:15.383Z,100.00
2023-02-26T02:17:49.307Z,100.00
2023-02-26T02:20:19.933Z,100.00
2023-02-26T02:22:47.604Z,100.00
2023-02-26T02:25:51.816Z,100.00
2023-02-26T02:28:32.045Z,100.00
2023-02-26T02:31:22.244Z,100.00
2023-02-26T02:33:57.513Z,100.00
2023-02-26T02:37:17.388Z,100.00
2023-02-26T02:39:53.331Z,100.00
2023-02-26T02:42:35.693Z,100.00
2023-02-26T02:45:09.571Z,100.00
2023-02-26T02:47:41.917Z,100.00
2023-02-26T02:50:09.799Z,100.00
2023-02-26T02:53:01.457Z,100.00
2023-02-26T02:55:37.086Z,100.00
2023-02-26T02:58:14.281Z,100.00
2023-02-26T03:00:48.552Z,100.00
2023-02-26T03:03:34.240Z,100.00
2023-02-26T03:06:03.297Z,100.00
2023-02-26T03:08:37.439Z,100.00
2023-02-26T03:11:05.757Z,100.00
2023-02-26T03:13:33.447Z,100.00
2023-02-26T03:16:04.100Z,100.00
2023-02-26T03:18:37.585Z,100.00
2023-02-26T03:21:24.610Z,100.00
2023-02-26T03:24:16.253Z,100.00
2023-02-26T03:26:50.863Z,100.00
2023-02-26T03:29:42.116Z,100.00
2023-02-26T03:32:50.586Z,100.00
2023-02-26T03:35:28.094Z,100.00
2023-02-26T03:38:01.370Z,100.00
2023-02-26T03:40:39.606Z,100.00
2023-02-26T03:43:17.473Z,100.00
2023-02-26T03:45:48.859Z,100.00
2023-02-26T03:48:22.458Z,100.00
2023-02-26T03:50:54.205Z,100.00
2023-02-26T03:53:26.913Z,100.00
2023-02-26T03:56:11.627Z,100.00
2023-02-26T03:58:41.231Z,100.00
2023-02-26T04:01:18.673Z,100.00
2023-02-26T04:03:53.977Z,100.00
2023-02-26T04:06:22.808Z,100.00
2023-02-26T04:08:51.299Z,100.00
2023-02-26T04:11:20.943Z,100.00
2023-02-26T04:13:49.458Z,100.00
2023-02-26T04:16:18.770Z,100.00
2023-02-26T04:18:46.454Z,100.00
2023-02-26T04:21:17.158Z,100.00
2023-02-26T04:23:44.944Z,100.00
2023-02-26T04:26:13.356Z,100.00
2023-02-26T04:28:41.825Z,100.00
2023-02-26T04:31:10.604Z,100.00
2023-02-26T04:33:39.193Z,100.00
2023-02-26T04:36:07.000Z,100.00
2023-02-26T04:38:35.424Z,100.00
2023-02-26T04:41:03.919Z,100.00
2023-02-26T04:43:31.958Z,100.00
2023-02-26T04:46:00.895Z,100.00
2023-02-26T04:48:29.944Z,100.00
2023-02-26T04:50:57.455Z,100.00
2023-02-26T04:53:25.501Z,100.00
2023-02-26T04:55:52.993Z,100.00
2023-02-26T04:58:20.900Z,100.00
2023-02-26T05:00:53.779Z,100.00
2023-02-26T05:03:21.818Z,100.00
2023-02-26T05:05:49.719Z,100.00
2023-02-26T05:08:17.668Z,100.00
2023-02-26T05:10:46.450Z,100.00
2023-02-26T05:13:14.303Z,100.00
2023-02-26T05:15:41.846Z,100.00
2023-02-26T05:18:09.591Z,100.00
2023-02-26T05:20:37.380Z,100.00
2023-02-26T05:23:05.414Z,100.00
2023-02-26T05:25:32.959Z,100.00
2023-02-26T05:28:00.706Z,100.00
2023-02-26T05:30:29.548Z,100.00
2023-02-26T05:32:57.074Z,100.00
2023-02-26T05:35:24.794Z,100.00
2023-02-26T05:37:52.454Z,100.00
2023-02-26T05:40:20.223Z,100.00
2023-02-26T05:42:48.124Z,100.00
2023-02-26T05:45:15.637Z,100.00
2023-02-26T05:47:43.604Z,100.00
2023-02-26T05:50:12.322Z,100.00
2023-02-26T05:52:40.280Z,100.00
2023-02-26T05:55:08.687Z,100.00
2023-02-26T05:57:36.785Z,100.00
2023-02-26T06:00:07.588Z,100.00
2023-02-26T06:02:42.056Z,100.00
2023-02-26T06:05:10.291Z,100.00
2023-02-26T06:07:37.734Z,100.00
2023-02-26T06:10:08.641Z,100.00
2023-02-26T06:12:40.006Z,100.00
2023-02-26T06:15:08.723Z,100.00
2023-02-26T06:17:38.968Z,100.00
2023-02-26T06:20:09.854Z,100.00
2023-02-26T06:22:37.701Z,100.00
2023-02-26T06:25:05.593Z,100.00
2023-02-26T06:27:33.160Z,100.00
2023-02-26T06:30:00.928Z,100.00
2023-02-26T06:32:30.675Z,100.00
2023-02-26T06:34:58.255Z,100.00
2023-02-26T06:37:26.022Z,100.00
2023-02-26T06:39:53.570Z,100.00
2023-02-26T06:42:21.268Z,100.00
2023-02-26T06:44:48.951Z,100.00
2023-02-26T06:47:16.583Z,100.00
2023-02-26T06:49:44.065Z,100.00
2023-02-26T06:52:13.420Z,100.00
2023-02-26T06:54:40.954Z,100.00
2023-02-26T06:57:08.505Z,100.00
2023-02-26T06:59:36.422Z,100.00
2023-02-26T07:02:04.301Z,100.00
2023-02-26T07:04:31.703Z,100.00
2023-02-26T07:06:59.371Z,100.00
2023-02-26T07:09:26.945Z,100.00
2023-02-26T07:11:54.494Z,100.00
2023-02-26T07:14:22.326Z,100.00
2023-02-26T07:16:50.199Z,100.00
2023-02-26T07:19:18.269Z,100.00
2023-02-26T07:21:46.079Z,100.00
2023-02-26T07:24:13.582Z,100.00
2023-02-26T07:26:41.148Z,100.00
2023-02-26T07:29:09.071Z,100.00
2023-02-26T07:31:37.177Z,100.00
2023-02-26T07:34:05.404Z,100.00
2023-02-26T07:36:33.314Z,100.00
2023-02-26T07:39:00.776Z,100.00
2023-02-26T07:41:28.421Z,100.00
2023-02-26T07:43:56.288Z,100.00
2023-02-26T07:46:24.026Z,100.00
2023-02-26T07:48:51.735Z,100.00
2023-02-26T07:51:19.814Z,100.00
2023-02-26T07:53:47.339Z,100.00
2023-02-26T07:56:14.827Z,100.00
2023-02-26T07:58:42.540Z,100.00
2023-02-26T08:01:10.191Z,100.00
2023-02-26T08:03:37.925Z,100.00
2023-02-26T08:06:06.179Z,100.00
2023-02-26T08:08:33.707Z,100.00
2023-02-26T08:11:02.046Z,100.00
2023-02-26T08:13:29.461Z,99.51
2023-02-26T08:15:56.918Z,99.61
2023-02-26T08:18:24.853Z,99.41
2023-02-26T08:20:52.661Z,98.66
2023-02-26T08:23:20.240Z,97.95
2023-02-26T08:25:49.014Z,98.37
2023-02-26T08:28:16.495Z,97.88
2023-02-26T08:30:44.002Z,97.25
2023-02-26T08:33:12.216Z,96.34
2023-02-26T08:35:39.634Z,95.62
2023-02-26T08:38:07.677Z,95.68
2023-02-26T08:40:35.503Z,97.14
2023-02-26T08:43:04.076Z,95.95
2023-02-26T08:45:31.527Z,94.85
2023-02-26T08:48:00.038Z,95.90
2023-02-26T08:50:28.245Z,94.45
2023-02-26T08:52:55.998Z,95.03
2023-02-26T08:55:23.832Z,95.81
2023-02-26T08:57:51.340Z,96.16
2023-02-26T09:00:19.414Z,95.27
2023-02-26T09:02:47.420Z,94.14
2023-02-26T09:05:15.582Z,94.17
2023-02-26T09:07:43.843Z,93.44
2023-02-26T09:10:13.356Z,92.59
2023-02-26T09:12:41.211Z,93.28
2023-02-26T09:15:10.387Z,93.25
2023-02-26T09:17:38.281Z,91.99
2023-02-26T09:20:06.911Z,93.11
2023-02-26T09:22:35.756Z,93.62
2023-02-26T09:25:04.873Z,93.56
2023-02-26T09:27:32.866Z,94.68
2023-02-26T09:30:00.672Z,94.00
2023-02-26T09:32:28.493Z,94.68
2023-02-26T09:34:56.055Z,93.75
2023-02-26T09:37:23.556Z,94.23
2023-02-26T09:39:53.928Z,92.87
2023-02-26T09:42:58.075Z,92.53
2023-02-26T09:45:37.901Z,92.72
2023-02-26T09:48:07.694Z,93.90
2023-02-26T09:50:44.153Z,94.62
2023-02-26T09:53:26.254Z,93.60
2023-02-26T09:56:01.939Z,93.29
2023-02-26T09:58:40.171Z,93.64
2023-02-26T10:01:10.711Z,92.94
2023-02-26T10:03:50.316Z,92.73
2023-02-26T10:06:31.406Z,93.27
2023-02-26T10:09:16.798Z,93.51
2023-02-26T10:11:55.489Z,94.41
2023-02-26T10:14:28.772Z,95.05
2023-02-26T10:17:05.826Z,97.11
2023-02-26T10:19:39.098Z,95.88
2023-02-26T10:22:20.013Z,95.50
2023-02-26T10:24:55.609Z,94.29
2023-02-26T10:27:37.594Z,95.33
2023-02-26T10:30:18.886Z,96.78
2023-02-26T10:32:53.805Z,97.91
2023-02-26T10:35:25.946Z,96.37
2023-02-26T10:37:59.431Z,96.58
2023-02-26T10:40:50.254Z,96.49
2023-02-26T10:43:29.989Z,97.05
2023-02-26T10:46:03.515Z,97.06
2023-02-26T10:48:59.708Z,97.49
2023-02-26T10:51:35.322Z,96.64
2023-02-26T10:54:19.507Z,95.27
2023-02-26T10:56:47.316Z,93.27
2023-02-26T10:59:16.864Z,93.78
2023-02-26T11:01:45.111Z,93.94
2023-02-26T11:04:18.152Z,94.29
2023-02-26T11:06:51.523Z,94.64
2023-02-26T11:09:19.422Z,95.17
2023-02-26T11:12:04.698Z,96.53
2023-02-26T11:14:33.687Z,95.77
2023-02-26T11:17:07.542Z,96.36
2023-02-26T11:19:37.933Z,94.74
2023-02-26T11:22:09.800Z,94.26
2023-02-26T11:24:46.411Z,94.77
2023-02-26T11:27:32.783Z,95.76
2023-02-26T11:30:14.774Z,96.39
2023-02-26T11:32:45.565Z,96.19
2023-02-26T11:35:15.377Z,97.59
2023-02-26T11:37:49.131Z,96.27
2023-02-26T11:40:23.163Z,96.21
2023-02-26T11:42:55.054Z,97.13
2023-02-26T11:45:22.949Z,97.48
2023-02-26T11:47:59.275Z,96.97
2023-02-26T11:50:28.432Z,97.44
2023-02-26T11:53:10.550Z,98.21
2023-02-26T11:55:44.593Z,99.61
2023-02-26T11:58:19.540Z,99.71
2023-02-26T12:00:49.462Z,99.83
2023-02-26T12:03:22.121Z,100.00
2023-02-26T12:05:53.273Z,100.00
2023-02-26T12:08:30.565Z,100.00
2023-02-26T12:11:07.229Z,100.00
2023-02-26T12:14:01.139Z,100.00
2023-02-26T12:16:39.977Z,100.00
2023-02-26T12:19:49.461Z,100.00
2023-02-26T12:22:26.774Z,100.00
2023-02-26T12:25:13.280Z,100.00
2023-02-26T12:27:54.944Z,100.00
2023-02-26T12:31:03.986Z,100.00
2023-02-26T12:33:37.530Z,100.00
2023-02-26T12:36:22.905Z,100.00
2023-02-26T12:39:07.829Z,100.00
2023-02-26T12:41:44.871Z,100.00
2023-02-26T12:44:26.676Z,100.00
2023-02-26T12:47:29.914Z,100.00
2023-02-26T12:50:12.396Z,100.00
2023-02-26T12:52:57.911Z,100.00
2023-02-26T12:55:40.124Z,100.00
2023-02-26T12:58:27.139Z,100.00
2023-02-26T13:01:14.715Z,100.00
2023-02-26T13:04:07.437Z,100.00
2023-02-26T13:06:43.636Z,100.00
2023-02-26T13:09:41.915Z,100.00
2023-02-26T13:12:31.128Z,100.00
2023-02-26T13:15:18.476Z,100.00
2023-02-26T13:18:30.267Z,100.00
2023-02-26T13:21:06.134Z,100.00
2023-02-26T13:23:44.950Z,100.00
2023-02-26T13:26:14.271Z,100.00
2023-02-26T13:28:48.522Z,100.00
2023-02-26T13:31:23.571Z,100.00
2023-02-26T13:33:56.082Z,100.00
2023-02-26T13:36:26.116Z,100.00
2023-02-26T13:39:06.042Z,100.00
2023-02-26T13:42:07.897Z,100.00
2023-02-26T13:45:20.822Z,100.00
2023-02-26T13:48:29.264Z,100.00
2023-02-26T13:51:08.938Z,100.00
2023-02-26T13:53:52.896Z,100.00
2023-02-26T13:57:03.508Z,100.00
2023-02-26T13:59:37.601Z,100.00
2023-02-26T14:02:20.190Z,100.00
2023-02-26T14:04:54.087Z,100.00
2023-02-26T14:07:46.594Z,100.00
2023-02-26T14:10:29.518Z,100.00
2023-02-26T14:13:03.663Z,100.00
2023-02-26T14:15:50.118Z,100.00
2023-02-26T14:18:30.079Z,100.00
2023-02-26T14:21:31.742Z,100.00
2023-02-26T14:24:03.361Z,100.00
2023-02-26T14:26:36.826Z,100.00
2023-02-26T14:29:04.533Z,100.00
2023-02-26T14:31:50.964Z,100.00
2023-02-26T14:34:25.875Z,100.00
2023-02-26T14:36:57.912Z,100.00
2023-02-26T14:39:34.053Z,100.00
2023-02-26T14:42:22.653Z,100.00
2023-02-26T14:45:07.840Z,100.00
2023-02-26T14:47:37.315Z,100.00
2023-02-26T14:50:08.246Z,100.00
2023-02-26T14:53:00.770Z,100.00
2023-02-26T14:55:55.367Z,100.00
2023-02-26T14:58:23.281Z,100.00
2023-02-26T15:01:12.593Z,100.00
2023-02-26T15:03:56.386Z,100.00
2023-02-26T15:06:53.242Z,100.00
2023-02-26T15:09:27.083Z,100.00
2023-02-26T15:12:10.209Z,100.00
2023-02-26T15:15:05.787Z,100.00
2023-02-26T15:17:45.266Z,100.00
2023-02-26T15:20:19.217Z,100.00
2023-02-26T15:22:58.948Z,100.00
2023-02-26T15:25:40.660Z,100.00
2023-02-26T15:28:15.910Z,100.00
2023-02-26T15:30:48.757Z,100.00
2023-02-26T15:33:20.435Z,100.00
2023-02-26T15:35:49.943Z,100.00
2023-02-26T15:38:18.020Z,100.00
2023-02-26T15:40:46.853Z,100.00
2023-02-26T15:43:20.396Z,100.00
2023-02-26T15:45:51.860Z,100.00
2023-02-26T15:48:32.403Z,100.00
2023-02-26T15:51:03.724Z,100.00
2023-02-26T15:53:41.160Z,100.00
2023-02-26T15:56:19.574Z,100.00
2023-02-26T15:58:55.061Z,100.00
2023-02-26T16:01:24.897Z,100.00
2023-02-26T16:03:57.163Z,100.00
2023-02-26T16:06:48.197Z,100.00
2023-02-26T16:09:20.200Z,100.00
2023-02-26T16:11:49.794Z,100.00
2023-02-26T16:14:46.954Z,100.00
2023-02-26T16:17:26.248Z,100.00
2023-02-26T16:19:57.151Z,100.00
2023-02-26T16:22:36.022Z,100.00
2023-02-26T16:25:07.280Z,100.00
2023-02-26T16:27:35.802Z,100.00
2023-02-26T16:30:05.891Z,100.00
2023-02-26T16:32:35.863Z,100.00
2023-02-26T16:35:16.134Z,100.00
2023-02-26T16:37:49.939Z,100.00
2023-02-26T16:40:33.764Z,100.00
2023-02-26T16:43:27.373Z,100.00
2023-02-26T16:45:56.745Z,100.00
2023-02-26T16:48:31.685Z,100.00
2023-02-26T16:51:13.966Z,100.00
2023-02-26T16:53:53.891Z,100.00
2023-02-26T16:56:27.745Z,100.00
2023-02-26T16:59:14.084Z,100.00
2023-02-26T17:01:51.964Z,100.00
2023-02-26T17:04:26.746Z,100.00
2023-02-26T17:06:55.472Z,100.00
2023-02-26T17:09:44.856Z,100.00
2023-02-26T17:12:15.409Z,100.00
2023-02-26T17:14:45.371Z,100.00
2023-02-26T17:17:13.669Z,100.00
2023-02-26T17:19:41.390Z,100.00
2023-02-26T17:22:15.550Z,100.00
2023-02-26T17:24:45.664Z,100.00
2023-02-26T17:27:17.868Z,100.00
2023-02-26T17:29:51.057Z,100.00
2023-02-26T17:32:22.803Z,100.00
2023-02-26T17:34:51.692Z,100.00
2023-02-26T17:37:20.650Z,100.00
2023-02-26T17:39:48.698Z,100.00
2023-02-26T17:42:21.290Z,100.00
2023-02-26T17:44:50.584Z,100.00
2023-02-26T17:47:20.648Z,100.00
2023-02-26T17:49:48.983Z,100.00
2023-02-26T17:52:17.291Z,100.00
2023-02-26T17:54:45.952Z,98.80
2023-02-26T17:57:21.123Z,98.93
2023-02-26T17:59:50.013Z,97.79
2023-02-26T18:02:23.231Z,97.16
2023-02-26T18:04:52.001Z,97.38
2023-02-26T18:07:20.507Z,97.10
2023-02-26T18:09:48.645Z,96.09
2023-02-26T18:12:20.104Z,96.22
2023-02-26T18:14:51.955Z,95.99
2023-02-26T18:17:27.852Z,94.69
2023-02-26T18:19:55.722Z,95.30
2023-02-26T18:22:25.472Z,93.38
2023-02-26T18:24:54.751Z,92.52
2023-02-26T18:27:24.511Z,93.11
2023-02-26T18:29:53.518Z,92.04
2023-02-26T18:32:23.497Z,92.71
2023-02-26T18:34:51.853Z,92.01
2023-02-26T18:37:26.056Z,91.09
2023-02-26T18:39:54.564Z,91.15
2023-02-26T18:42:27.968Z,89.45
2023-02-26T18:44:55.847Z,89.08
2023-02-26T18:47:24.008Z,88.87
2023-02-26T18:49:52.242Z,88.20
2023-02-26T18:52:20.525Z,87.49
2023-02-26T18:54:48.540Z,87.90
2023-02-26T18:57:17.162Z,86.17
2023-02-26T18:59:44.913Z,85.97
2023-02-26T19:02:14.064Z,84.36
2023-02-26T19:04:42.458Z,82.87
2023-02-26T19:07:10.254Z,81.31
2023-02-26T19:09:40.233Z,80.73
2023-02-26T19:12:10.288Z,78.05
2023-02-26T19:14:39.083Z,76.93
2023-02-26T19:17:07.563Z,78.74
2023-02-26T19:19:35.127Z,77.01
2023-02-26T19:22:03.247Z,78.14
2023-02-26T19:24:31.071Z,78.84
2023-02-26T19:26:58.862Z,78.35
2023-02-26T19:29:27.195Z,79.15
2023-02-26T19:31:55.237Z,77.92
2023-02-26T19:34:23.674Z,77.36
2023-02-26T19:36:53.409Z,76.81
2023-02-26T19:39:21.219Z,78.06
2023-02-26T19:41:50.668Z,76.32
2023-02-26T19:44:20.297Z,76.56
2023-02-26T19:46:49.032Z,76.00
2023-02-26T19:49:17.610Z,76.53
2023-02-26T19:51:46.278Z,76.81
2023-02-26T19:54:14.661Z,76.55
2023-02-26T19:56:43.283Z,75.79
2023-02-26T19:59:12.464Z,75.66
2023-02-26T20:01:41.525Z,75.51
2023-02-26T20:04:10.388Z,75.35
2023-02-26T20:06:39.106Z,75.40
2023-02-26T20:09:07.374Z,75.49
2023-02-26T20:11:36.096Z,74.88
2023-02-26T20:14:04.100Z,75.02
2023-02-26T20:16:31.888Z,74.55
2023-02-26T20:19:02.113Z,74.42
2023-02-26T20:21:30.012Z,73.32
2023-02-26T20:23:58.005Z,74.00
2023-02-26T20:26:26.050Z,74.24
2023-02-26T20:28:53.989Z,72.96
2023-02-26T20:31:21.930Z,73.78
2023-02-26T20:33:49.660Z,72.95
2023-02-26T20:36:17.978Z,72.67
2023-02-26T20:38:45.965Z,72.78
2023-02-26T20:41:14.745Z,72.83
2023-02-26T20:43:42.506Z,73.59
2023-02-26T20:46:10.296Z,73.21
2023-02-26T20:48:41.812Z,73.30
2023-02-26T20:51:11.978Z,73.90
2023-02-26T20:53:40.241Z,74.29
2023-02-26T20:56:08.914Z,74.38
2023-02-26T20:58:38.371Z,75.00
2023-02-26T21:01:06.415Z,75.67
2023-02-26T21:03:34.115Z,76.49
2023-02-26T21:06:01.930Z,76.50
2023-02-26T21:08:29.612Z,76.58
2023-02-26T21:10:57.283Z,77.57
2023-02-26T21:13:25.052Z,77.94
2023-02-26T21:15:53.249Z,77.26
2023-02-26T21:18:20.992Z,77.14
2023-02-26T21:20:49.224Z,77.25
2023-02-26T21:23:17.160Z,77.18
2023-02-26T21:25:44.787Z,76.47
2023-02-26T21:28:12.359Z,77.04
2023-02-26T21:30:40.145Z,76.58
2023-02-26T21:33:08.598Z,76.47
2023-02-26T21:35:36.617Z,76.44
2023-02-26T21:38:04.358Z,76.73
2023-02-26T21:40:32.039Z,76.54
2023-02-26T21:42:59.794Z,77.03
2023-02-26T21:45:27.559Z,76.37
2023-02-26T21:47:55.179Z,74.98
2023-02-26T21:50:23.003Z,74.39
2023-02-26T21:52:50.938Z,73.61
2023-02-26T21:55:18.862Z,74.51
2023-02-26T21:57:46.339Z,73.08
2023-02-26T22:00:16.162Z,74.37
2023-02-26T22:02:44.558Z,74.13
2023-02-26T22:05:12.349Z,73.90
2023-02-26T22:07:40.076Z,73.94
2023-02-26T22:10:09.953Z,75.30
2023-02-26T22:12:37.525Z,76.20
2023-02-26T22:15:05.655Z,76.03
2023-02-26T22:17:33.414Z,75.78
2023-02-26T22:20:00.828Z,75.80
2023-02-26T22:22:28.944Z,75.91
2023-02-26T22:24:56.612Z,75.65
2023-02-26T22:27:24.390Z,75.51
2023-02-26T22:29:51.872Z,75.52
2023-02-26T22:32:19.677Z,75.51
2023-02-26T22:34:47.240Z,75.43
2023-02-26T22:37:14.897Z,74.89
2023-02-26T22:39:43.277Z,74.82
2023-02-26T22:42:10.834Z,74.42
2023-02-26T22:44:38.449Z,75.47
2023-02-26T22:47:07.466Z,75.58
2023-02-26T22:49:35.059Z,75.80
2023-02-26T22:52:03.076Z,75.57
2023-02-26T22:54:31.004Z,74.74
2023-02-26T22:56:58.404Z,75.79
2023-02-26T22:59:25.875Z,76.47
2023-02-26T23:01:53.693Z,76.33
2023-02-26T23:04:21.663Z,76.66
2023-02-26T23:06:49.109Z,75.95
2023-02-26T23:09:17.053Z,76.29
2023-02-26T23:11:44.642Z,76.03
2023-02-26T23:14:12.050Z,76.96
2023-02-26T23:16:40.161Z,75.97
2023-02-26T23:19:07.883Z,76.36
2023-02-26T23:21:35.766Z,76.72
2023-02-26T23:24:03.770Z,77.62
2023-02-26T23:26:31.865Z,77.06
2023-02-26T23:28:59.404Z,77.01
2023-02-26T23:31:27.357Z,77.94
2023-02-26T23:33:55.167Z,78.21
2023-02-26T23:36:25.528Z,77.96
2023-02-26T23:38:53.670Z,77.95
2023-02-26T23:41:21.214Z,78.16
2023-02-26T23:43:48.745Z,77.70
2023-02-26T23:46:16.477Z,78.40
2023-02-26T23:48:44.415Z,78.29
2023-02-26T23:51:11.900Z,78.91
2023-02-26T23:53:39.765Z,78.41
2023-02-26T23:56:07.609Z,77.57
2023-02-26T23:58:35.307Z,78.17
